Time;durP1;ratioP1;P1;durP2;ratioP2;P2;SDS_P1;SDS_P2;PMS_P1;PMS_P2;Temp;Humidity;BMP_temperature;BMP_pressure;BME280_temperature;BME280_humidity;BME280_pressure;Samples;Min_cycle;Max_cycle;Signal;HPM_P1;HPM_P2
2023/03/25 00:02:43;;;;;;;8.00;4.60;;;;;;;8.39;74.17;99262.58;129598;1264;114838;-72
2023/03/25 00:05:46;;;;;;;7.00;4.70;;;;;;;8.36;73.84;99265.37;129759;1272;114866;-72
2023/03/25 00:08:48;;;;;;;10.50;4.80;;;;;;;8.34;74.12;99259.10;129684;1260;114839;-71
2023/03/25 00:11:50;;;;;;;6.80;4.40;;;;;;;8.32;73.92;99256.91;129794;1264;115169;-72
2023/03/25 00:14:57;;;;;;;8.90;5.30;;;;;;;8.30;74.37;99254.55;129673;1273;128907;-72
2023/03/25 00:18:00;;;;;;;9.60;5.60;;;;;;;8.27;73.82;99251.48;129861;1263;115338;-71
2023/03/25 00:21:04;;;;;;;8.10;4.90;;;;;;;8.25;74.09;99251.43;129642;1262;114837;-72
2023/03/25 00:24:06;;;;;;;8.80;4.70;;;;;;;8.23;73.88;99248.52;129733;1275;115057;-72
2023/03/25 00:27:08;;;;;;;12.30;5.30;;;;;;;8.22;74.08;99246.42;129686;1267;115142;-72
2023/03/25 00:30:11;;;;;;;8.10;4.40;;;;;;;8.21;74.25;99245.08;129813;1282;114736;-72
2023/03/25 00:33:13;;;;;;;7.60;4.60;;;;;;;8.19;74.10;99239.48;129764;1272;128463;-72
2023/03/25 00:36:16;;;;;;;7.20;4.20;;;;;;;8.18;74.34;99235.13;129732;1279;114853;-73
2023/03/25 00:39:18;;;;;;;8.20;3.90;;;;;;;8.16;73.98;99237.34;129735;1282;114863;-72
2023/03/25 00:42:24;;;;;;;7.50;4.20;;;;;;;8.15;73.88;99232.07;129748;1263;114803;-72
2023/03/25 00:45:29;;;;;;;8.00;4.90;;;;;;;8.14;74.01;99234.27;129626;1265;114822;-72
2023/03/25 00:48:31;;;;;;;7.30;4.10;;;;;;;8.12;74.06;99231.71;129808;1265;114803;-72
2023/03/25 00:51:34;;;;;;;7.60;4.10;;;;;;;8.10;74.04;99238.80;129721;1265;114847;-72
2023/03/25 00:54:36;;;;;;;8.90;4.70;;;;;;;8.06;73.89;99239.84;129766;1272;114866;-72
2023/03/25 00:57:39;;;;;;;8.40;4.30;;;;;;;8.02;74.07;99233.88;129754;1265;114821;-72
2023/03/25 01:00:41;;;;;;;9.50;4.80;;;;;;;7.98;74.57;99233.59;129772;1272;114856;-72
2023/03/25 01:03:43;;;;;;;7.30;4.60;;;;;;;7.94;74.65;99232.38;129702;1268;114839;-72
2023/03/25 01:06:50;;;;;;;11.80;4.50;;;;;;;7.90;74.84;99234.85;129706;1268;114719;-72
2023/03/25 01:09:52;;;;;;;6.70;4.20;;;;;;;7.87;74.68;99238.24;129819;1264;128799;-71
2023/03/25 01:12:55;;;;;;;8.00;4.50;;;;;;;7.84;74.61;99236.81;129523;1266;115302;-73
2023/03/25 01:15:57;;;;;;;7.50;4.50;;;;;;;7.81;74.57;99231.12;130035;1260;115115;-72
2023/03/25 01:18:59;;;;;;;6.80;4.20;;;;;;;7.79;74.52;99228.23;129714;1274;114730;-72
2023/03/25 01:22:01;;;;;;;5.60;3.40;;;;;;;7.76;74.44;99223.92;129595;1266;114767;-71
2023/03/25 01:25:03;;;;;;;8.60;4.70;;;;;;;7.73;74.30;99222.30;129633;1266;115268;-71
2023/03/25 01:28:06;;;;;;;7.80;3.50;;;;;;;7.71;74.67;99220.63;129447;1266;114861;-71
2023/03/25 01:31:11;;;;;;;7.10;5.10;;;;;;;7.68;74.44;99218.14;129531;1283;114718;-72
2023/03/25 01:34:13;;;;;;;;;;;;;;;7.65;74.54;99220.98;129622;1267;114787;-72
2023/03/25 01:37:16;;;;;;;8.70;5.40;;;;;;;7.60;74.82;99224.06;129608;1265;114740;-71
2023/03/25 01:40:23;;;;;;;13.90;6.30;;;;;;;7.56;74.84;99221.66;129579;1283;115154;-71
2023/03/25 01:43:25;;;;;;;9.70;7.10;;;;;;;7.52;75.09;99218.13;129689;1266;114875;-74
2023/03/25 01:46:28;;;;;;;10.30;6.20;;;;;;;7.49;75.10;99212.63;129667;1264;114765;-74
2023/03/25 01:49:39;;;;;;;13.50;6.30;;;;;;;7.47;75.28;99216.29;129653;1283;114737;-73
2023/03/25 01:52:45;;;;;;;9.50;6.40;;;;;;;7.43;75.22;99214.48;129959;1266;114758;-73
2023/03/25 01:55:48;;;;;;;10.40;6.80;;;;;;;7.41;75.22;99208.05;129627;1267;114690;-73
2023/03/25 01:58:52;;;;;;;12.00;7.20;;;;;;;7.38;75.43;99199.86;129717;1274;115194;-73
2023/03/25 02:01:55;;;;;;;10.80;7.10;;;;;;;7.35;75.51;99200.39;129648;1274;114784;-74
2023/03/25 02:05:01;;;;;;;12.50;6.40;;;;;;;7.32;75.28;99196.98;129635;1267;128273;-73
2023/03/25 02:08:04;;;;;;;;;;;;;;;7.29;75.38;99191.83;129705;1283;115020;-73
2023/03/25 02:11:08;;;;;;;10.70;6.70;;;;;;;7.24;75.37;99186.41;129580;1281;114806;-73
2023/03/25 02:14:17;;;;;;;11.00;6.70;;;;;;;7.21;75.31;99184.48;129639;1266;115259;-73
2023/03/25 02:17:44;;;;;;;9.60;6.10;;;;;;;7.16;75.56;99182.73;129961;1274;114764;-72
2023/03/25 02:21:23;;;;;;;10.90;6.40;;;;;;;7.11;75.49;99182.30;129551;1265;128970;-75
2023/03/25 02:25:03;;;;;;;11.00;6.30;;;;;;;7.06;75.38;99184.33;129799;1283;115329;-73
2023/03/25 02:28:34;;;;;;;10.10;5.70;;;;;;;7.01;75.73;99186.20;129850;1266;114840;-73
2023/03/25 02:31:58;;;;;;;11.80;5.30;;;;;;;6.97;75.80;99190.88;129847;1264;115169;-72
2023/03/25 02:35:12;;;;;;;9.60;6.20;;;;;;;6.92;75.91;99186.48;129623;1275;114777;-72
2023/03/25 02:38:51;;;;;;;9.30;5.10;;;;;;;6.88;75.78;99181.02;129634;1283;129732;-73
2023/03/25 02:42:02;;;;;;;11.10;5.90;;;;;;;6.85;76.13;99182.09;129214;1273;115287;-74
2023/03/25 02:45:15;;;;;;;9.80;6.90;;;;;;;6.80;75.88;99180.90;128868;1276;114800;-73
2023/03/25 02:48:24;;;;;;;12.70;6.50;;;;;;;6.77;75.95;99180.55;129510;1270;114877;-73
2023/03/25 02:51:39;;;;;;;9.60;6.00;;;;;;;6.74;76.06;99182.11;129222;1281;114864;-72
2023/03/25 02:54:46;;;;;;;9.70;5.50;;;;;;;6.70;75.98;99182.67;129286;1280;129162;-73
2023/03/25 02:57:51;;;;;;;12.00;6.00;;;;;;;6.66;76.01;99181.27;129253;1288;115235;-73
2023/03/25 03:00:57;;;;;;;10.00;6.20;;;;;;;6.62;75.93;99184.33;129120;1273;114870;-73
2023/03/25 03:04:00;;;;;;;7.70;5.10;;;;;;;6.58;76.00;99186.11;129107;1267;115062;-72
2023/03/25 03:07:02;;;;;;;11.00;5.70;;;;;;;6.54;76.07;99189.70;129206;1271;115898;-72
2023/03/25 03:10:26;;;;;;;7.30;5.40;;;;;;;6.50;76.27;99189.52;129259;1281;115422;-72
2023/03/25 03:13:28;;;;;;;9.00;5.50;;;;;;;6.46;76.06;99186.52;129266;1277;114848;-72
2023/03/25 03:16:44;;;;;;;12.90;5.80;;;;;;;6.44;76.35;99187.02;129206;1267;116426;-71
2023/03/25 03:19:57;;;;;;;8.90;5.20;;;;;;;6.41;76.31;99182.38;129578;1264;114765;-72
2023/03/25 03:23:13;;;;;;;11.80;5.20;;;;;;;6.38;76.54;99182.34;129650;1263;114763;-72
2023/03/25 03:26:42;;;;;;;13.30;5.80;;;;;;;6.35;76.50;99177.33;129703;1265;128610;-72
2023/03/25 03:29:47;;;;;;;8.90;5.40;;;;;;;6.34;76.44;99178.11;129644;1273;117207;-72
2023/03/25 03:32:56;;;;;;;8.40;5.40;;;;;;;6.32;76.57;99181.02;129689;1275;114776;-73
2023/03/25 03:36:14;;;;;;;8.20;5.40;;;;;;;6.32;76.82;99188.46;129756;1272;114818;-73
2023/03/25 03:39:25;;;;;;;12.80;8.60;;;;;;;6.33;76.81;99194.31;129818;1272;114687;-74
2023/03/25 03:42:31;;;;;;;17.40;8.70;;;;;;;6.34;76.89;99197.26;129744;1265;127864;-72
2023/03/25 03:45:40;;;;;;;14.60;7.50;;;;;;;6.38;77.03;99197.23;129730;1264;115223;-72
2023/03/25 03:48:51;;;;;;;14.00;7.70;;;;;;;6.41;77.03;99197.42;129682;1276;114754;-72
2023/03/25 03:52:07;;;;;;;12.10;7.60;;;;;;;6.46;77.10;99194.18;129676;1274;114828;-72
2023/03/25 03:55:23;;;;;;;17.20;7.40;;;;;;;6.50;77.12;99195.20;129678;1266;114739;-72
2023/03/25 03:58:28;;;;;;;13.10;6.60;;;;;;;6.54;77.10;99196.98;129724;1279;128725;-72
2023/03/25 04:01:33;;;;;;;14.70;6.70;;;;;;;6.57;77.01;99199.67;129629;1279;115201;-72
2023/03/25 04:04:37;;;;;;;11.50;6.40;;;;;;;6.58;76.97;99198.88;129625;1264;114845;-73
2023/03/25 04:07:43;;;;;;;10.60;6.30;;;;;;;6.60;77.16;99200.73;129640;1274;114784;-74
2023/03/25 04:11:10;;;;;;;12.70;6.50;;;;;;;6.62;76.96;99199.58;129679;1264;114723;-73
2023/03/25 04:14:12;;;;;;;13.90;6.30;;;;;;;6.62;77.03;99200.65;129619;1264;129264;-73
2023/03/25 04:17:14;;;;;;;9.90;6.00;;;;;;;6.62;76.99;99195.65;129483;1267;114821;-72
2023/03/25 04:20:22;;;;;;;11.00;6.00;;;;;;;6.63;76.99;99200.92;129690;1283;114842;-73
2023/03/25 04:23:24;;;;;;;9.00;5.80;;;;;;;6.62;76.93;99199.91;129534;1264;114781;-72
2023/03/25 04:26:32;;;;;;;11.50;5.70;;;;;;;6.62;76.76;99193.89;129542;1264;114774;-72
2023/03/25 04:29:34;;;;;;;9.50;6.00;;;;;;;6.62;77.01;99193.56;129618;1277;129230;-72
2023/03/25 04:32:36;;;;;;;9.60;5.40;;;;;;;6.62;76.95;99199.27;129883;1264;114830;-72
2023/03/25 04:35:39;;;;;;;10.60;5.80;;;;;;;6.61;76.97;99197.14;129714;1264;114778;-73
2023/03/25 04:38:44;;;;;;;10.60;5.70;;;;;;;6.61;76.89;99199.65;129817;1261;114844;-74
2023/03/25 04:41:46;;;;;;;;;;;;;;;6.61;77.07;99199.27;129814;1264;114815;-73
2023/03/25 04:44:48;;;;;;;8.30;5.20;;;;;;;6.62;77.08;99201.73;129682;1264;114834;-74
2023/03/25 04:47:52;;;;;;;9.60;5.60;;;;;;;6.61;76.96;99206.74;129778;1264;114880;-73
2023/03/25 04:50:57;;;;;;;13.90;6.00;;;;;;;6.61;76.85;99207.98;129739;1267;129102;-73
2023/03/25 04:54:00;;;;;;;10.70;5.70;;;;;;;6.60;76.87;99208.75;129696;1283;115148;-73
2023/03/25 04:57:02;;;;;;;13.00;6.40;;;;;;;6.59;77.01;99210.36;129627;1273;115201;-73
2023/03/25 05:00:05;;;;;;;12.60;6.70;;;;;;;6.59;77.00;99211.98;129963;1264;114761;-72
2023/03/25 05:03:08;;;;;;;13.00;5.50;;;;;;;6.59;76.88;99210.59;129599;1264;114777;-72
2023/03/25 05:06:11;;;;;;;13.90;6.80;;;;;;;6.58;76.76;99216.96;129646;1264;114746;-72
2023/03/25 05:09:15;;;;;;;11.90;6.90;;;;;;;6.59;76.83;99219.41;129578;1267;114782;-73
2023/03/25 05:12:18;;;;;;;9.50;6.70;;;;;;;6.59;77.10;99220.31;129561;1264;114752;-73
2023/03/25 05:15:20;;;;;;;12.30;7.00;;;;;;;6.60;77.02;99217.56;129979;1264;114797;-73
2023/03/25 05:18:22;;;;;;;8.80;6.90;;;;;;;6.62;77.02;99214.64;130012;1264;114736;-73
2023/03/25 05:21:24;;;;;;;11.80;7.30;;;;;;;6.67;77.03;99215.47;129937;1264;115483;-72
2023/03/25 05:24:28;;;;;;;12.50;7.10;;;;;;;6.71;77.15;99212.95;129607;1280;114766;-71
2023/03/25 05:27:32;;;;;;;12.50;6.40;;;;;;;6.75;77.20;99212.76;129525;1280;127644;-71
2023/03/25 05:30:38;;;;;;;13.30;6.70;;;;;;;6.79;77.15;99214.86;129776;1261;114666;-72
2023/03/25 05:33:42;;;;;;;11.80;6.40;;;;;;;6.82;77.38;99210.08;129719;1264;114762;-73
2023/03/25 05:36:45;;;;;;;8.80;6.20;;;;;;;6.86;77.20;99212.17;129546;1264;115494;-74
2023/03/25 05:39:47;;;;;;;19.10;7.20;;;;;;;6.90;77.36;99211.12;129617;1280;114752;-74
2023/03/25 05:42:49;;;;;;;8.90;6.70;;;;;;;6.93;77.13;99208.09;129616;1267;114788;-75
2023/03/25 05:45:51;;;;;;;10.60;7.30;;;;;;;6.97;77.40;99205.75;129946;1261;129299;-73
2023/03/25 05:48:56;;;;;;;16.40;7.00;;;;;;;7.02;77.41;99205.48;129685;1263;114807;-73
2023/03/25 05:51:58;;;;;;;10.30;6.80;;;;;;;7.08;77.45;99207.48;130055;1264;114738;-74
2023/03/25 05:55:02;;;;;;;11.40;7.30;;;;;;;7.17;77.65;99208.28;129999;1263;114731;-74
2023/03/25 05:58:04;;;;;;;14.50;7.10;;;;;;;7.26;77.37;99214.55;129689;1280;114741;-73
2023/03/25 06:01:07;;;;;;;10.50;6.70;;;;;;;7.37;77.60;99220.38;129969;1260;114752;-74
2023/03/25 06:04:15;;;;;;;11.20;6.90;;;;;;;7.48;77.64;99224.02;129666;1263;115133;-73
2023/03/25 06:07:21;;;;;;;13.60;7.50;;;;;;;7.62;77.90;99220.80;129985;1263;114800;-74
2023/03/25 06:10:23;;;;;;;15.00;7.60;;;;;;;7.76;77.76;99221.60;129912;1264;114664;-75
2023/03/25 06:13:27;;;;;;;12.20;8.40;;;;;;;7.92;77.71;99223.73;129835;1273;114835;-77
2023/03/25 06:16:30;;;;;;;13.40;7.30;;;;;;;8.15;77.80;99227.09;129989;1261;115397;-75
2023/03/25 06:19:37;;;;;;;11.90;8.00;;;;;;;8.46;78.36;99228.17;129995;1264;114753;-78
2023/03/25 06:22:42;;;;;;;10.60;6.90;;;;;;;8.91;78.40;99227.69;130056;1264;115236;-74
2023/03/25 06:25:44;;;;;;;14.20;7.70;;;;;;;9.41;78.28;99219.50;130088;1264;115343;-74
2023/03/25 06:28:46;;;;;;;9.90;6.00;;;;;;;9.86;77.60;99217.41;129928;1279;217987;-73
2023/03/25 06:31:49;;;;;;;12.80;6.20;;;;;;;10.25;77.23;99215.23;130004;1259;114836;-74
2023/03/25 06:34:51;;;;;;;10.00;6.10;;;;;;;10.70;76.99;99217.13;130168;1264;114788;-73
2023/03/25 06:37:56;;;;;;;10.20;6.10;;;;;;;10.98;76.25;99212.21;130017;1264;115261;-73
2023/03/25 06:40:58;;;;;;;13.20;5.50;;;;;;;11.15;75.51;99206.39;130009;1260;114872;-73
2023/03/25 06:44:01;;;;;;;9.90;4.90;;;;;;;11.27;75.38;99205.91;129978;1260;114700;-73
2023/03/25 06:47:05;;;;;;;8.00;4.60;;;;;;;11.37;74.71;99209.33;130105;1260;114828;-74
2023/03/25 06:50:07;;;;;;;11.40;4.30;;;;;;;11.46;74.36;99208.33;129930;1264;114841;-73
2023/03/25 06:53:10;;;;;;;11.40;4.60;;;;;;;11.55;74.24;99205.21;129853;1264;115036;-73
2023/03/25 06:56:12;;;;;;;7.10;4.30;;;;;;;11.61;73.87;99204.09;130008;1263;115274;-73
2023/03/25 06:59:14;;;;;;;10.60;4.30;;;;;;;11.61;73.49;99204.62;130099;1261;114778;-74
2023/03/25 07:02:16;;;;;;;6.90;4.20;;;;;;;11.62;73.55;99196.14;129963;1260;114779;-73
2023/03/25 07:05:19;;;;;;;9.20;3.70;;;;;;;11.66;73.17;99194.05;129954;1264;114743;-74
2023/03/25 07:08:21;;;;;;;8.90;4.40;;;;;;;11.74;73.22;99189.03;129989;1263;114777;-73
2023/03/25 07:11:28;;;;;;;6.90;4.10;;;;;;;11.81;73.09;99190.66;129923;1260;114755;-73
2023/03/25 07:14:30;;;;;;;10.70;4.70;;;;;;;11.86;72.75;99193.36;130035;1280;115205;-74
2023/03/25 07:17:32;;;;;;;6.20;4.50;;;;;;;11.87;72.40;99193.98;129989;1263;115197;-73
2023/03/25 07:20:34;;;;;;;8.30;4.40;;;;;;;11.87;72.22;99198.11;129950;1266;114825;-73
2023/03/25 07:23:36;;;;;;;9.80;4.70;;;;;;;11.83;71.70;99194.75;130003;1263;114733;-74
2023/03/25 07:26:38;;;;;;;7.90;4.40;;;;;;;11.81;71.66;99193.89;130009;1263;114848;-74
2023/03/25 07:29:41;;;;;;;7.00;4.60;;;;;;;11.79;71.48;99197.77;130129;1263;114811;-73
2023/03/25 07:32:44;;;;;;;9.00;4.80;;;;;;;11.79;71.93;99202.21;129994;1263;129374;-73
2023/03/25 07:35:46;;;;;;;8.10;5.30;;;;;;;11.82;71.62;99200.09;130052;1279;115287;-73
2023/03/25 07:38:49;;;;;;;11.90;7.20;;;;;;;11.83;71.55;99202.65;130032;1260;114785;-74
2023/03/25 07:41:52;;;;;;;18.00;7.90;;;;;;;11.85;71.75;99203.41;130128;1260;114850;-75
2023/03/25 07:44:54;;;;;;;15.20;9.40;;;;;;;11.88;71.52;99209.48;130158;1263;114887;-76
2023/03/25 07:47:56;;;;;;;14.90;7.80;;;;;;;11.89;71.34;99211.05;130049;1263;115447;-75
2023/03/25 07:50:58;;;;;;;18.40;9.30;;;;;;;11.89;71.12;99207.27;130043;1264;114842;-74
2023/03/25 07:54:00;;;;;;;11.50;7.20;;;;;;;11.92;71.39;99207.00;129982;1261;114853;-74
2023/03/25 07:57:02;;;;;;;6.90;5.10;;;;;;;11.99;71.25;99207.99;129834;1264;115291;-76
2023/03/25 08:00:05;;;;;;;11.30;5.30;;;;;;;12.05;71.25;99211.66;129983;1264;114779;-77
2023/03/25 08:03:10;;;;;;;6.10;4.50;;;;;;;12.12;71.06;99205.09;130024;1264;114832;-76
2023/03/25 08:06:12;;;;;;;9.70;5.20;;;;;;;12.16;71.06;99203.91;129625;1283;114722;-75
2023/03/25 08:09:14;;;;;;;7.50;4.90;;;;;;;12.21;70.88;99199.42;129966;1261;114787;-75
2023/03/25 08:12:16;;;;;;;9.30;4.30;;;;;;;12.27;70.80;99197.14;129889;1267;114803;-75
2023/03/25 08:15:20;;;;;;;7.10;4.40;;;;;;;12.36;70.48;99194.90;129645;1264;115260;-74
2023/03/25 08:18:22;;;;;;;7.40;4.20;;;;;;;12.42;70.27;99199.25;129972;1261;115398;-73
2023/03/25 08:21:26;;;;;;;7.90;3.90;;;;;;;12.49;70.06;99201.85;130018;1261;115185;-74
2023/03/25 08:24:28;;;;;;;5.90;3.30;;;;;;;12.55;69.96;99204.22;129735;1264;114792;-74
2023/03/25 08:27:31;;;;;;;7.90;3.20;;;;;;;12.68;69.70;99205.20;129721;1264;114774;-74
2023/03/25 08:30:37;;;;;;;9.70;3.70;;;;;;;12.89;69.91;99204.30;129972;1260;114771;-74
2023/03/25 08:33:40;;;;;;;11.20;3.30;;;;;;;13.24;69.67;99203.21;129919;1260;114836;-73
2023/03/25 08:36:42;;;;;;;5.50;2.50;;;;;;;13.55;68.75;99204.80;129941;1283;114900;-73
2023/03/25 08:39:45;;;;;;;8.50;2.20;;;;;;;13.83;68.77;99204.52;130015;1264;114749;-74
2023/03/25 08:42:47;;;;;;;6.40;2.50;;;;;;;14.09;68.15;99199.42;130007;1264;114733;-74
2023/03/25 08:45:49;;;;;;;5.90;2.60;;;;;;;14.25;67.30;99197.77;129961;1264;114755;-74
2023/03/25 08:48:52;;;;;;;3.20;1.80;;;;;;;14.40;67.22;99194.15;129917;1261;114911;-74
2023/03/25 08:51:56;;;;;;;3.70;2.00;;;;;;;14.59;67.12;99194.20;129866;1277;114777;-76
2023/03/25 08:54:58;;;;;;;3.40;2.00;;;;;;;14.81;66.41;99195.86;130088;1264;114734;-73
2023/03/25 08:58:01;;;;;;;3.60;2.30;;;;;;;14.95;65.78;99198.62;129944;1261;114756;-73
2023/03/25 09:01:04;;;;;;;4.30;1.90;;;;;;;15.03;65.27;99195.75;130000;1260;114832;-71
2023/03/25 09:04:06;;;;;;;3.80;1.70;;;;;;;15.08;64.86;99192.97;129937;1264;114827;-72
2023/03/25 09:07:09;;;;;;;3.80;2.00;;;;;;;15.06;64.39;99190.43;129676;1264;114753;-72
2023/03/25 09:10:11;;;;;;;3.90;1.80;;;;;;;14.96;63.69;99190.92;129997;1261;114744;-73
2023/03/25 09:13:14;;;;;;;2.30;1.00;;;;;;;14.84;62.95;99187.10;129976;1261;114793;-72
2023/03/25 09:16:16;;;;;;;6.70;2.70;;;;;;;14.68;62.15;99183.91;129638;1262;114701;-78
2023/03/25 09:19:18;;;;;;;3.00;0.90;;;;;;;14.58;62.06;99174.88;129625;1261;114854;-74
2023/03/25 09:22:21;;;;;;;1.70;0.90;;;;;;;14.63;62.42;99176.07;130025;1264;114872;-75
2023/03/25 09:25:24;;;;;;;1.90;1.00;;;;;;;14.79;62.38;99177.50;130129;1262;114685;-76
2023/03/25 09:28:27;;;;;;;2.20;0.90;;;;;;;14.90;61.43;99179.09;129969;1261;127804;-75
2023/03/25 09:31:29;;;;;;;1.50;0.90;;;;;;;14.94;61.14;99180.48;129915;1264;115869;-74
2023/03/25 09:34:32;;;;;;;2.90;1.50;;;;;;;15.05;61.23;99182.41;129949;1260;114817;-75
2023/03/25 09:37:34;;;;;;;1.90;0.80;;;;;;;15.12;60.76;99181.83;129933;1264;114748;-76
2023/03/25 09:40:37;;;;;;;2.90;1.40;;;;;;;15.23;60.98;99177.15;129633;1283;114705;-75
2023/03/25 09:44:01;;;;;;;3.70;1.00;;;;;;;15.32;60.74;99176.88;129415;1283;114836;-75
2023/03/25 09:47:04;;;;;;;3.20;1.20;;;;;;;15.45;60.39;99178.63;129569;1274;127774;-70
2023/03/25 09:50:12;;;;;;;1.20;0.90;;;;;;;15.58;60.04;99188.13;129628;1262;115245;-70
2023/03/25 09:53:16;;;;;;;1.60;1.20;;;;;;;15.71;59.44;99188.06;129870;1263;115239;-72
2023/03/25 09:56:30;;;;;;;1.20;0.80;;;;;;;15.84;58.82;99190.00;129752;1260;114807;-72
2023/03/25 09:59:41;;;;;;;1.80;1.60;;;;;;;15.96;58.43;99188.77;129661;1263;114757;-70
2023/03/25 10:02:52;;;;;;;1.40;1.10;;;;;;;16.09;58.58;99184.36;129861;1263;128597;-71
2023/03/25 10:06:05;;;;;;;1.20;1.00;;;;;;;16.13;57.97;99182.88;129822;1264;115194;-74
2023/03/25 10:09:11;;;;;;;2.20;0.60;;;;;;;16.16;57.16;99182.43;129639;1264;116452;-71
2023/03/25 10:12:28;;;;;;;1.00;0.70;;;;;;;16.17;56.45;99172.10;129773;1262;114768;-72
2023/03/25 10:15:34;;;;;;;0.90;0.60;;;;;;;16.17;56.21;99171.90;129800;1282;114861;-75
2023/03/25 10:18:45;;;;;;;1.30;0.70;;;;;;;16.12;55.73;99165.70;129764;1262;129021;-70
2023/03/25 10:22:03;;;;;;;3.00;1.50;;;;;;;16.12;55.96;99162.11;129804;1271;114753;-72
2023/03/25 10:25:13;;;;;;;2.10;1.10;;;;;;;16.23;55.86;99161.07;129704;1263;114732;-69
2023/03/25 10:33:40;;;;;;;;;;;;;;;;;;;;;
2023/03/25 10:37:39;;;;;;;1.10;0.80;;;;;;;16.55;54.71;99163.56;129262;1273;129005;-70
2023/03/25 10:41:48;;;;;;;;;;;;;;;;;;;;;
2023/03/25 10:45:18;;;;;;;1.80;1.40;;;;;;;16.85;54.22;99146.33;128296;1282;115130;-71
2023/03/25 10:48:28;;;;;;;2.10;1.10;;;;;;;16.98;54.19;99151.05;128300;1285;114856;-72
2023/03/25 10:51:36;;;;;;;1.30;0.80;;;;;;;16.98;53.35;99152.17;128467;1279;115007;-72
2023/03/25 10:54:53;;;;;;;4.60;1.10;;;;;;;16.92;53.06;99147.16;127934;1280;128112;-71
2023/03/25 10:58:08;;;;;;;1.60;0.60;;;;;;;16.89;52.98;99141.09;128216;1282;116643;-72
2023/03/25 11:01:23;;;;;;;4.90;1.10;;;;;;;16.83;52.84;99136.77;128189;1282;114904;-71
2023/03/25 11:04:37;;;;;;;1.10;0.70;;;;;;;16.78;52.39;99134.41;127894;1285;114984;-72
2023/03/25 11:08:05;;;;;;;2.50;1.10;;;;;;;16.71;51.82;99133.36;128367;1283;115454;-73
2023/03/25 11:11:12;;;;;;;2.60;0.90;;;;;;;16.73;52.05;99128.36;129060;1267;128553;-72
2023/03/25 11:14:23;;;;;;;4.00;1.00;;;;;;;16.76;51.57;99119.98;129028;1273;114924;-72
2023/03/25 11:17:29;;;;;;;2.60;1.20;;;;;;;16.82;51.96;99119.38;129741;1273;114796;-73
2023/03/25 11:20:44;;;;;;;1.60;0.80;;;;;;;16.92;51.75;99111.84;129941;1267;114812;-71
2023/03/25 11:23:50;;;;;;;1.80;1.00;;;;;;;17.04;51.40;99106.55;129940;1264;114906;-72
2023/03/25 11:26:52;;;;;;;5.60;1.40;;;;;;;17.12;51.19;99107.55;129742;1260;128231;-71
2023/03/25 11:30:06;;;;;;;1.40;1.00;;;;;;;17.24;50.71;99103.02;129728;1264;114773;-71
2023/03/25 11:33:13;;;;;;;1.50;1.20;;;;;;;17.24;49.80;99101.22;129710;1280;114822;-72
2023/03/25 11:36:24;;;;;;;2.00;1.20;;;;;;;17.14;49.78;99101.95;129614;1267;115027;-71
2023/03/25 11:39:38;;;;;;;1.60;1.30;;;;;;;17.08;49.91;99104.04;129734;1263;114790;-70
2023/03/25 11:42:48;;;;;;;5.40;1.80;;;;;;;17.06;49.61;99097.75;129702;1260;127832;-74
2023/03/25 11:45:51;;;;;;;4.00;1.50;;;;;;;17.04;49.79;99100.47;129748;1272;114759;-66
2023/03/25 11:48:53;;;;;;;3.60;1.10;;;;;;;17.19;50.23;99096.65;129766;1264;114768;-66
2023/03/25 11:52:07;;;;;;;3.00;1.40;;;;;;;17.41;49.55;99092.49;129871;1263;114840;-65
2023/03/25 11:55:36;;;;;;;1.30;1.10;;;;;;;17.58;48.61;99093.95;129860;1258;114778;-64
2023/03/25 11:58:39;;;;;;;2.00;1.30;;;;;;;17.71;48.70;99099.17;129760;1260;114774;-64
2023/03/25 12:01:48;;;;;;;4.50;1.80;;;;;;;17.75;48.08;99101.46;129663;1277;127655;-63
2023/03/25 12:05:08;;;;;;;1.00;0.70;;;;;;;17.68;47.70;99101.25;129799;1262;114765;-64
2023/03/25 12:08:17;;;;;;;2.90;1.10;;;;;;;17.57;47.32;99103.83;129800;1264;114733;-65
2023/03/25 12:11:23;;;;;;;2.80;1.30;;;;;;;17.40;47.04;99105.65;129937;1262;114800;-67
2023/03/25 12:14:35;;;;;;;7.10;1.30;;;;;;;17.17;46.67;99106.53;130062;1259;114874;-66
2023/03/25 12:17:52;;;;;;;2.80;1.30;;;;;;;16.89;46.31;99107.89;129857;1264;127834;-65
2023/03/25 12:21:07;;;;;;;2.90;0.90;;;;;;;16.73;46.70;99114.84;129903;1277;115273;-68
2023/03/25 12:24:35;;;;;;;2.50;1.30;;;;;;;16.61;46.54;99114.38;130073;1258;114720;-66
2023/03/25 12:28:03;;;;;;;3.80;1.20;;;;;;;16.50;46.64;99131.23;129765;1266;116384;-66
2023/03/25 12:31:23;;;;;;;4.00;1.30;;;;;;;16.33;47.06;99147.05;129786;1266;116454;-62
2023/03/25 12:34:36;;;;;;;6.80;1.50;;;;;;;16.13;47.27;99160.04;129432;1259;128794;-62
2023/03/25 12:38:04;;;;;;;2.40;1.00;;;;;;;15.78;47.31;99171.92;129518;1266;115171;-64
2023/03/25 12:41:18;;;;;;;4.40;1.30;;;;;;;15.40;47.98;99176.91;129409;1261;114847;-63
2023/03/25 12:45:08;;;;;;;2.60;1.30;;;;;;;15.18;49.24;99187.77;129378;1274;116031;-63
2023/03/25 12:48:25;;;;;;;1.50;1.00;;;;;;;14.98;49.82;99193.06;128935;1280;114865;-64
2023/03/25 12:51:36;;;;;;;2.80;1.20;;;;;;;14.73;50.92;99194.11;128971;1270;130071;-62
2023/03/25 12:54:48;;;;;;;3.40;1.20;;;;;;;14.41;51.07;99194.63;129049;1281;115542;-63
2023/03/25 12:58:00;;;;;;;3.10;1.70;;;;;;;14.15;52.12;99196.71;129057;1281;114825;-63
2023/03/25 13:01:16;;;;;;;4.80;2.80;;;;;;;13.95;52.88;99202.85;129053;1270;115819;-62
2023/03/25 13:04:28;;;;;;;2.10;1.90;;;;;;;13.73;53.60;99208.95;129077;1270;115003;-63
2023/03/25 13:07:33;;;;;;;3.50;1.90;;;;;;;13.49;54.32;99203.84;129354;1265;128945;-64
2023/03/25 13:10:36;;;;;;;4.90;2.80;;;;;;;13.34;55.15;99201.98;129046;1278;114942;-64
2023/03/25 13:13:40;;;;;;;2.70;1.50;;;;;;;13.24;55.73;99196.45;129395;1270;114878;-64
2023/03/25 13:16:43;;;;;;;1.80;1.30;;;;;;;13.23;56.50;99194.04;128791;1273;115378;-64
2023/03/25 13:19:46;;;;;;;3.50;1.70;;;;;;;13.30;56.92;99187.88;129023;1280;114991;-63
2023/03/25 13:22:56;;;;;;;1.90;1.30;;;;;;;13.47;57.40;99181.61;128981;1271;128760;-64
2023/03/25 13:26:05;;;;;;;2.30;1.40;;;;;;;13.60;57.41;99184.34;128989;1263;117155;-63
2023/03/25 13:29:24;;;;;;;1.90;1.10;;;;;;;13.75;57.54;99173.41;129527;1259;114730;-63
2023/03/25 13:32:49;;;;;;;0.40;0.40;;;;;;;13.85;56.33;99172.08;129761;1266;114741;-64
2023/03/25 13:36:02;;;;;;;0.90;0.50;;;;;;;13.83;55.72;99168.48;129335;1265;114881;-64
2023/03/25 13:39:12;;;;;;;1.50;0.50;;;;;;;13.78;55.20;99164.36;129305;1264;128116;-63
2023/03/25 13:43:03;;;;;;;2.20;1.30;;;;;;;13.70;55.01;99162.36;129555;1263;115203;-65
2023/03/25 13:46:19;;;;;;;0.70;0.60;;;;;;;13.68;55.44;99158.72;129391;1270;114874;-64
2023/03/25 13:49:26;;;;;;;1.00;0.90;;;;;;;13.73;55.09;99154.93;129405;1280;114781;-64
2023/03/25 13:52:36;;;;;;;1.20;0.90;;;;;;;13.74;55.01;99161.65;129097;1271;115452;-65
2023/03/25 13:55:45;;;;;;;0.50;0.50;;;;;;;13.73;54.77;99158.53;129046;1270;129358;-65
2023/03/25 13:59:05;;;;;;;2.20;0.90;;;;;;;13.64;54.43;99155.09;129182;1265;116258;-64
2023/03/25 14:02:26;;;;;;;1.10;0.60;;;;;;;13.48;54.20;99155.13;129447;1270;114775;-64
2023/03/25 14:05:53;;;;;;;0.40;0.40;;;;;;;13.31;54.24;99155.05;128829;1272;114933;-65
2023/03/25 14:09:04;;;;;;;0.60;0.60;;;;;;;13.12;54.55;99152.56;128790;1265;114832;-65
2023/03/25 14:12:42;;;;;;;0.80;0.80;;;;;;;13.01;54.90;99152.36;129300;1265;129035;-65
2023/03/25 14:16:08;;;;;;;3.10;1.00;;;;;;;12.93;55.09;99152.94;129409;1269;116549;-64
2023/03/25 14:19:14;;;;;;;3.00;1.30;;;;;;;12.93;55.56;99152.21;129178;1285;114928;-65
2023/03/25 14:22:19;;;;;;;1.80;1.20;;;;;;;13.02;55.86;99149.06;129449;1271;114826;-65
2023/03/25 14:25:31;;;;;;;2.20;1.20;;;;;;;13.15;55.74;99147.47;129998;1281;114730;-65
2023/03/25 14:28:38;;;;;;;1.40;1.10;;;;;;;13.29;55.64;99143.70;129404;1264;127886;-63
2023/03/25 14:31:59;;;;;;;1.80;1.30;;;;;;;13.39;55.46;99145.28;129577;1281;114839;-64
2023/03/25 14:35:37;;;;;;;2.20;1.50;;;;;;;13.45;55.26;99148.02;129365;1266;114824;-65
2023/03/25 14:38:53;;;;;;;1.50;1.10;;;;;;;13.51;55.16;99142.36;129782;1281;114834;-65